Home > Products > Valid Products > TAF

000
FTUS44 KEPZ 240500
TAFDMN
TAF
KDMN 240527Z 2406/2506 30012KT P6SM SKC
     FM240900 27008KT P6SM SCT250
     FM241800 24011KT P6SM BKN250
     FM250200 27005KT P6SM SCT250=



000
FTUS44 KEPZ 240500
TAFTCS
TAF
KTCS 240527Z 2406/2506 30009KT P6SM SKC
     FM241300 VRB04KT P6SM SCT250
     FM241900 18012KT P6SM FEW200 BKN250
     FM250300 23006KT P6SM SCT250=



000
FTUS44 KEPZ 240500
TAFELP
TAF
KELP 240527Z 2406/2506 30015G25KT P6SM FEW250
      TEMPO 2406/2409 30020G35KT
     FM241000 33011KT P6SM SCT250
     FM241400 VRB04KT P6SM SCT250
     FM242100 23008KT P6SM SCT250=



000
FTUS44 KEPZ 240200 AAA
TAFDMN
TAF AMD
KDMN 240209Z 2402/2424 27020G30KT P6SM SKC
     FM240300 29014KT P6SM FEW250
     FM240700 30007KT P6SM FEW250
     FM241300 VRB04KT P6SM SCT250
     FM242100 24010KT P6SM BKN250=



000
FTUS44 KEPZ 232300
TAFTCS
TAF
KTCS 232322Z 2400/2424 25018G28KT P6SM FEW250
     FM240200 25010KT P6SM SKC
     FM240800 29008KT P6SM FEW250
     FM241300 VRB04KT P6SM SCT250
     FM241900 18012KT P6SM FEW200 BKN250=



000
FTUS44 KEPZ 232300
TAFELP
TAF
KELP 232322Z 2400/2424 25022G33KT P6SM FEW250
     FM240300 27015G25KT P6SM FEW250
      TEMPO 2403/2407 28022G32KT
     FM240800 29011KT P6SM SCT250
     FM241400 VRB04KT P6SM SCT250
     FM242100 23008KT P6SM SCT250=



000
FTUS44 KEPZ 232300
TAFDMN
TAF
KDMN 232322Z 2400/2424 27022G32KT P6SM SKC
     FM240200 28013KT P6SM FEW250
     FM240700 30007KT P6SM FEW250
     FM241300 VRB04KT P6SM SCT250
     FM242100 24010KT P6SM BKN250=



000
FTUS44 KEPZ 231700
TAFELP
TAF
KELP 231720Z 2318/2418 25017G26KT P6SM SCT250
     FM231900 25021G33KT P6SM FEW250
      TEMPO 2320/2324 4SM BLDU
     FM240400 27015G27KT P6SM SKC
     FM240700 28010KT P6SM FEW300=



000
FTUS44 KEPZ 231700
TAFTCS
TAF
KTCS 231720Z 2318/2418 21012G20KT P6SM SCT250
     FM232000 23022G37KT P6SM FEW250
     FM240200 25014G25KT P6SM SKC
     FM240500 29008KT P6SM SKC=



000
FTUS44 KEPZ 231700
TAFDMN
TAF
KDMN 231720Z 2318/2418 26018G28KT P6SM FEW250
     FM231900 26022G38KT P6SM FEW250
      TEMPO 2320/2324 2SM BLDU
     FM240200 27012G22KT P6SM SKC
     FM240400 30008KT P6SM FEW300=



000
FTUS44 KEPZ 231100
TAFTCS
TAF
KTCS 231120Z 2312/2412 25007KT P6SM SCT100 BKN250
     FM231600 21012G20KT P6SM SCT250
     FM232000 24024G37KT P6SM FEW250
     FM240300 26011KT P6SM SKC=



000
FTUS44 KEPZ 231100
TAFELP
TAF
KELP 231120Z 2312/2412 25012KT P6SM SCT100 BKN250
     FM231600 23015G25KT P6SM SCT250
     FM232000 25025G37KT P6SM FEW250
      TEMPO 2320/2324 3SM BLDU
     FM240300 27018G30KT P6SM SKC=



000
FTUS44 KEPZ 231100
TAFDMN
TAF
KDMN 231120Z 2312/2412 26011KT P6SM FEW150 BKN250
     FM231600 26015G25KT P6SM FEW250
     FM232000 27026G40KT P6SM FEW250
      TEMPO 2320/2324 2SM BLDU
     FM240300 28012KT P6SM SKC=



000
FTUS44 KEPZ 230500
TAFELP
TAF
KELP 230528Z 2306/2406 24011KT P6SM SCT150 BKN250
     FM231600 23015G25KT P6SM SCT250
     FM232000 25020G30KT P6SM FEW250
      TEMPO 2320/2324 4SM BLDU
     FM240200 27018G30KT P6SM SKC=



000
FTUS44 KEPZ 230500
TAFDMN
TAF
KDMN 230528Z 2306/2406 26011KT P6SM FEW150 BKN250
     FM231600 26015G25KT P6SM FEW250
     FM232000 27023G33KT P6SM FEW250
      TEMPO 2320/2324 4SM BLDU
     FM240200 28012KT P6SM SKC=



000
FTUS44 KEPZ 230500
TAFTCS
TAF
KTCS 230528Z 2306/2406 25007KT P6SM SCT150 BKN250
     FM231600 21011G20KT P6SM SCT250
     FM232000 24022G32KT P6SM FEW250
     FM240200 26011KT P6SM SKC=



000
FTUS44 KEPZ 222300
TAFTCS
TAF
KTCS 222322Z 2300/2324 19016G25KT P6SM BKN100 BKN250
     FM230300 23010KT P6SM SCT100 BKN250
     FM230800 26007KT P6SM SCT250
     FM231600 23011G20KT P6SM SCT250
     FM232000 25022G32KT P6SM FEW250=



000
FTUS44 KEPZ 222300
TAFDMN
TAF
KDMN 222322Z 2300/2324 23011KT P6SM SCT100 BKN250
     FM230300 26011KT P6SM FEW100 SCT250
     FM231600 26015G25KT P6SM FEW250
     FM232000 27024G34KT P6SM FEW250
      TEMPO 2320/2324 4SM BLDU=



000
FTUS44 KEPZ 222300
TAFELP
TAF
KELP 222322Z 2300/2324 16014G22KT P6SM BKN100 BKN250
     FM230300 22011KT P6SM BKN100
     FM230700 26010KT P6SM FEW100 SCT250
     FM231600 23015G25KT P6SM SCT250
     FM232000 25022G32KT P6SM FEW250
      TEMPO 2320/2324 4SM BLDU=



000
FTUS44 KEPZ 222000 AAA
TAFTCS
TAF AMD
KTCS 222012Z 2220/2318 19015G25KT P6SM SCT060CB SCT100 SCT250
     FM230300 23011G20KT P6SM SCT100 BKN250
     FM231600 25015G25KT P6SM FEW070 SCT250=



000
FTUS44 KEPZ 222000 AAA
TAFDMN
TAF AMD
KDMN 222012Z 2220/2318 17015G25KT P6SM SCT060CB SCT100 SCT250
     FM230300 27011G20KT P6SM SCT100 BKN250
     FM231600 26015G25KT P6SM FEW070 SCT250=



000
FTUS44 KEPZ 221700 RRA
TAFELP
TAF
KELP 221749Z 2218/2318 16011KT P6SM FEW070 FEW250
     FM222000 18011G22KT P6SM SCT060CB SCT100 SCT250
     FM230300 23011G20KT P6SM SCT100 BKN250
     FM231600 25015G25KT P6SM FEW070 SCT250=



000
FTUS44 KEPZ 221700 RRA
TAFTCS
TAF
KTCS 221749Z 2218/2318 19012KT P6SM FEW070 FEW250
     FM222000 20011G22KT P6SM SCT060CB SCT100 SCT250
     FM230300 23011G20KT P6SM SCT100 BKN250
     FM231600 25015G25KT P6SM FEW070 SCT250=



000
FTUS44 KEPZ 221700 RRA
TAFDMN
TAF
KDMN 221749Z 2218/2318 14011G20KT P6SM FEW070 FEW250
     FM222000 20011G22KT P6SM SCT060CB SCT100 SCT250
     FM230300 27011G20KT P6SM SCT100 BKN250
     FM231600 26015G25KT P6SM FEW070 SCT250=



000
FTUS44 KEPZ 221100
TAFDMN
TAF
KDMN 221120Z 2212/2312 05004KT P6SM SKC
     FM221500 13010KT P6SM SCT100
     FM222100 21016G26KT P6SM SCT100
     FM230100 26009KT P6SM SKC=



000
FTUS44 KEPZ 221100
TAFELP
TAF
KELP 221120Z 2212/2312 07006KT P6SM SKC
     FM221500 16010KT P6SM FEW100
     FM222000 16016G25KT P6SM SCT060 BKN100
     FM230300 23014G25KT P6SM SCT100=



000
FTUS44 KEPZ 221100
TAFTCS
TAF
KTCS 221120Z 2212/2312 30006KT P6SM SKC
     FM221500 16010KT P6SM FEW090
     FM222000 19017G26KT P6SM SCT050 BKN100
     FM230100 22011KT P6SM SCT100=



000
FTUS44 KEPZ 220500
TAFTCS
TAF
KTCS 220535Z 2206/2306 24005KT P6SM FEW090
     FM220900 30008KT P6SM SKC
     FM221500 12010KT P6SM FEW090
     FM222000 19015G25KT P6SM SCT090
     FM230100 22008KT P6SM SCT100=



000
FTUS44 KEPZ 220500
TAFELP
TAF
KELP 220535Z 2206/2306 07004KT P6SM SKC
     FM221500 16010KT P6SM FEW100
     FM222000 16012G22KT P6SM FEW100
     FM230100 23015G25KT P6SM SCT110=



000
FTUS44 KEPZ 220500
TAFDMN
TAF
KDMN 220535Z 2206/2306 05004KT P6SM SKC
     FM221500 13010KT P6SM SCT100
     FM222100 21012G22KT P6SM FEW100
     FM230100 24009KT P6SM FEW110=



000
FTUS44 KEPZ 212300
TAFDMN
TAF
KDMN 212339Z 2200/2224 18008KT P6SM FEW070
     FM220400 05009KT P6SM FEW100
     FM221500 13010KT P6SM SCT100
     FM221900 21012G22KT P6SM FEW100 SCT250=



000
FTUS44 KEPZ 212300
TAFELP
TAF
KELP 212339Z 2200/2224 20008KT P6SM FEW070
     FM220300 07009KT P6SM FEW100
     FM221500 16010KT P6SM SCT100
     FM222000 16012G22KT P6SM SCT250=



000
FTUS44 KEPZ 212300
TAFTCS
TAF
KTCS 212339Z 2200/2224 16010KT P6SM SCT060
     FM220300 24009KT P6SM FEW090
     FM220900 30008KT P6SM SCT090
     FM221500 12010KT P6SM SCT090
     FM222000 19015G25KT P6SM FEW100 SCT250=



000
FTUS44 KEPZ 211700 RRA
TAFDMN
TAF
KDMN 211751Z 2118/2218 20008KT P6SM FEW070
     FM220400 05009KT P6SM FEW100
     FM221500 13010KT P6SM SCT100=



000
FTUS44 KEPZ 211700 RRA
TAFELP
TAF
KELP 211751Z 2118/2218 20008KT P6SM FEW070
     FM220300 07009KT P6SM FEW100
     FM221500 16010KT P6SM SCT100=



000
FTUS44 KEPZ 211700 RRA
TAFTCS
TAF
KTCS 211751Z 2118/2218 08008KT P6SM SCT070
     FM212000 16010KT P6SM SCT070CB
     FM220300 24009KT P6SM FEW100
     FM220900 30008KT P6SM SCT100
     FM221500 12010KT P6SM SCT100=



000
FTUS44 KEPZ 211100
TAFELP
TAF
KELP 211134Z 2112/2212 26005KT P6SM SKC
     FM212100 16005KT P6SM SCT080
     FM220600 08006KT P6SM SKC=



000
FTUS44 KEPZ 211100
TAFTCS
TAF
KTCS 211134Z 2112/2212 31008KT P6SM SKC
     FM212100 17007KT P6SM SCT070
     FM220600 26006KT P6SM SKC=



000
FTUS44 KEPZ 211100
TAFDMN
TAF
KDMN 211134Z 2112/2212 25006KT P6SM SKC
     FM212000 20006KT P6SM SCT080
     FM220500 35005KT P6SM SKC=



    US Dept of Commerce
    National Oceanic and Atmospheric Administration
    National Weather Service
    1325 East West Highway
    Silver Spring, MD 20910
    Page Author: NWS Internet Services Team
Disclaimer
Information Quality
Credits
Glossary
Privacy Policy
Freedom of Information Act (FOIA)
About Us
Career Opportunities